sensor_id;sensor_type;location;lat;lon;timestamp;P1;durP1;ratioP1;P2;durP2;ratioP2
38117;SDS011;23928;47.562;7.508;2023-04-24T00:02:07;1.70;;;0.30;;
38117;SDS011;23928;47.562;7.508;2023-04-24T00:04:35;0.60;;;0.30;;
38117;SDS011;23928;47.562;7.508;2023-04-24T00:07:05;0.87;;;0.40;;
38117;SDS011;23928;47.562;7.508;2023-04-24T00:09:31;2.03;;;0.50;;
38117;SDS011;23928;47.562;7.508;2023-04-24T00:11:57;0.33;;;0.30;;
38117;SDS011;23928;47.562;7.508;2023-04-24T00:14:23;0.97;;;0.30;;
38117;SDS011;23928;47.562;7.508;2023-04-24T00:16:49;0.47;;;0.30;;
38117;SDS011;23928;47.562;7.508;2023-04-24T00:19:14;0.10;;;0.10;;
38117;SDS011;23928;47.562;7.508;2023-04-24T00:21:40;0.40;;;0.40;;
38117;SDS011;23928;47.562;7.508;2023-04-24T00:24:06;0.30;;;0.30;;
38117;SDS011;23928;47.562;7.508;2023-04-24T00:26:34;1.70;;;0.40;;
38117;SDS011;23928;47.562;7.508;2023-04-24T00:28:59;0.50;;;0.50;;
38117;SDS011;23928;47.562;7.508;2023-04-24T00:31:25;0.57;;;0.43;;
38117;SDS011;23928;47.562;7.508;2023-04-24T00:33:50;0.37;;;0.30;;
38117;SDS011;23928;47.562;7.508;2023-04-24T00:36:16;0.37;;;0.30;;
38117;SDS011;23928;47.562;7.508;2023-04-24T00:38:44;0.40;;;0.30;;
38117;SDS011;23928;47.562;7.508;2023-04-24T00:41:09;0.60;;;0.50;;
38117;SDS011;23928;47.562;7.508;2023-04-24T00:43:35;0.40;;;0.40;;
38117;SDS011;23928;47.562;7.508;2023-04-24T00:46:01;2.87;;;0.47;;
38117;SDS011;23928;47.562;7.508;2023-04-24T00:48:26;0.70;;;0.40;;
38117;SDS011;23928;47.562;7.508;2023-04-24T00:50:53;3.03;;;0.70;;
38117;SDS011;23928;47.562;7.508;2023-04-24T00:53:18;1.67;;;0.50;;
38117;SDS011;23928;47.562;7.508;2023-04-24T00:55:44;1.50;;;0.40;;
38117;SDS011;23928;47.562;7.508;2023-04-24T00:58:11;0.40;;;0.40;;
38117;SDS011;23928;47.562;7.508;2023-04-24T01:00:37;0.50;;;0.30;;
38117;SDS011;23928;47.562;7.508;2023-04-24T01:03:04;1.47;;;0.53;;
38117;SDS011;23928;47.562;7.508;2023-04-24T01:05:30;0.63;;;0.57;;
38117;SDS011;23928;47.562;7.508;2023-04-24T01:07:57;1.33;;;0.40;;
38117;SDS011;23928;47.562;7.508;2023-04-24T01:10:24;1.23;;;0.40;;
38117;SDS011;23928;47.562;7.508;2023-04-24T01:12:52;0.63;;;0.50;;
38117;SDS011;23928;47.562;7.508;2023-04-24T01:15:18;0.40;;;0.40;;
38117;SDS011;23928;47.562;7.508;2023-04-24T01:17:44;2.93;;;0.43;;
38117;SDS011;23928;47.562;7.508;2023-04-24T01:20:10;1.83;;;0.40;;
38117;SDS011;23928;47.562;7.508;2023-04-24T01:22:35;1.80;;;0.57;;
38117;SDS011;23928;47.562;7.508;2023-04-24T01:25:01;0.47;;;0.47;;
38117;SDS011;23928;47.562;7.508;2023-04-24T01:27:28;0.43;;;0.40;;
38117;SDS011;23928;47.562;7.508;2023-04-24T01:29:54;1.20;;;0.43;;
38117;SDS011;23928;47.562;7.508;2023-04-24T01:32:19;1.03;;;0.53;;
38117;SDS011;23928;47.562;7.508;2023-04-24T01:34:45;1.03;;;0.70;;
38117;SDS011;23928;47.562;7.508;2023-04-24T01:37:12;0.50;;;0.40;;
38117;SDS011;23928;47.562;7.508;2023-04-24T01:39:37;1.53;;;0.60;;
38117;SDS011;23928;47.562;7.508;2023-04-24T01:42:04;0.60;;;0.50;;
38117;SDS011;23928;47.562;7.508;2023-04-24T01:44:30;0.57;;;0.40;;
38117;SDS011;23928;47.562;7.508;2023-04-24T01:46:56;0.40;;;0.40;;
38117;SDS011;23928;47.562;7.508;2023-04-24T01:49:22;1.73;;;0.80;;
38117;SDS011;23928;47.562;7.508;2023-04-24T01:51:48;0.30;;;0.30;;
38117;SDS011;23928;47.562;7.508;2023-04-24T01:54:14;0.67;;;0.50;;
38117;SDS011;23928;47.562;7.508;2023-04-24T01:56:40;2.07;;;0.67;;
38117;SDS011;23928;47.562;7.508;2023-04-24T01:59:07;0.87;;;0.30;;
38117;SDS011;23928;47.562;7.508;2023-04-24T02:01:35;1.60;;;0.60;;
38117;SDS011;23928;47.562;7.508;2023-04-24T02:04:02;2.27;;;0.73;;
38117;SDS011;23928;47.562;7.508;2023-04-24T02:06:28;1.30;;;0.77;;
38117;SDS011;23928;47.562;7.508;2023-04-24T02:08:54;2.40;;;0.63;;
38117;SDS011;23928;47.562;7.508;2023-04-24T02:11:19;2.07;;;0.60;;
38117;SDS011;23928;47.562;7.508;2023-04-24T02:13:45;2.07;;;0.60;;
38117;SDS011;23928;47.562;7.508;2023-04-24T02:16:10;2.43;;;0.50;;
38117;SDS011;23928;47.562;7.508;2023-04-24T02:18:36;0.90;;;0.60;;
38117;SDS011;23928;47.562;7.508;2023-04-24T02:21:02;2.10;;;0.50;;
38117;SDS011;23928;47.562;7.508;2023-04-24T02:23:27;1.93;;;0.60;;
38117;SDS011;23928;47.562;7.508;2023-04-24T02:25:53;2.07;;;0.73;;
38117;SDS011;23928;47.562;7.508;2023-04-24T02:28:19;3.13;;;0.70;;
38117;SDS011;23928;47.562;7.508;2023-04-24T02:30:44;1.40;;;0.60;;
38117;SDS011;23928;47.562;7.508;2023-04-24T02:33:11;1.83;;;0.60;;
38117;SDS011;23928;47.562;7.508;2023-04-24T02:35:36;2.10;;;0.70;;
38117;SDS011;23928;47.562;7.508;2023-04-24T02:38:02;0.47;;;0.37;;
38117;SDS011;23928;47.562;7.508;2023-04-24T02:40:28;2.43;;;1.23;;
38117;SDS011;23928;47.562;7.508;2023-04-24T02:42:54;1.07;;;0.50;;
38117;SDS011;23928;47.562;7.508;2023-04-24T02:45:20;0.80;;;0.50;;
38117;SDS011;23928;47.562;7.508;2023-04-24T02:47:45;1.73;;;0.60;;
38117;SDS011;23928;47.562;7.508;2023-04-24T02:50:11;3.00;;;0.70;;
38117;SDS011;23928;47.562;7.508;2023-04-24T02:52:37;2.83;;;0.77;;
38117;SDS011;23928;47.562;7.508;2023-04-24T02:55:02;1.00;;;0.50;;
38117;SDS011;23928;47.562;7.508;2023-04-24T02:57:28;2.53;;;0.80;;
38117;SDS011;23928;47.562;7.508;2023-04-24T02:59:54;4.17;;;0.70;;
38117;SDS011;23928;47.562;7.508;2023-04-24T03:02:19;3.97;;;0.63;;
38117;SDS011;23928;47.562;7.508;2023-04-24T03:04:45;0.47;;;0.47;;
38117;SDS011;23928;47.562;7.508;2023-04-24T03:07:12;2.20;;;0.90;;
38117;SDS011;23928;47.562;7.508;2023-04-24T03:09:39;1.13;;;0.60;;
38117;SDS011;23928;47.562;7.508;2023-04-24T03:12:05;1.37;;;0.70;;
38117;SDS011;23928;47.562;7.508;2023-04-24T03:14:31;1.03;;;0.50;;
38117;SDS011;23928;47.562;7.508;2023-04-24T03:16:56;0.50;;;0.50;;
38117;SDS011;23928;47.562;7.508;2023-04-24T03:19:22;1.33;;;1.00;;
38117;SDS011;23928;47.562;7.508;2023-04-24T03:21:48;0.90;;;0.60;;
38117;SDS011;23928;47.562;7.508;2023-04-24T03:24:13;1.73;;;0.80;;
38117;SDS011;23928;47.562;7.508;2023-04-24T03:26:39;3.23;;;0.80;;
38117;SDS011;23928;47.562;7.508;2023-04-24T03:29:05;1.17;;;0.50;;
38117;SDS011;23928;47.562;7.508;2023-04-24T03:31:30;0.50;;;0.50;;
38117;SDS011;23928;47.562;7.508;2023-04-24T03:33:56;1.60;;;0.60;;
38117;SDS011;23928;47.562;7.508;2023-04-24T03:36:21;1.97;;;0.80;;
38117;SDS011;23928;47.562;7.508;2023-04-24T03:38:47;1.20;;;0.60;;
38117;SDS011;23928;47.562;7.508;2023-04-24T03:41:12;2.33;;;0.73;;
38117;SDS011;23928;47.562;7.508;2023-04-24T03:43:38;1.70;;;0.70;;
38117;SDS011;23928;47.562;7.508;2023-04-24T03:46:04;1.10;;;0.80;;
38117;SDS011;23928;47.562;7.508;2023-04-24T03:48:30;2.23;;;0.90;;
38117;SDS011;23928;47.562;7.508;2023-04-24T03:50:55;1.30;;;0.70;;
38117;SDS011;23928;47.562;7.508;2023-04-24T03:53:21;1.20;;;0.90;;
38117;SDS011;23928;47.562;7.508;2023-04-24T03:55:47;0.77;;;0.77;;
38117;SDS011;23928;47.562;7.508;2023-04-24T03:58:12;5.43;;;1.33;;
38117;SDS011;23928;47.562;7.508;2023-04-24T04:00:41;1.97;;;1.10;;
38117;SDS011;23928;47.562;7.508;2023-04-24T04:03:06;1.43;;;0.70;;
38117;SDS011;23928;47.562;7.508;2023-04-24T04:05:32;1.73;;;1.20;;
38117;SDS011;23928;47.562;7.508;2023-04-24T04:07:57;1.57;;;1.17;;
38117;SDS011;23928;47.562;7.508;2023-04-24T04:10:23;1.20;;;1.10;;
38117;SDS011;23928;47.562;7.508;2023-04-24T04:12:49;2.13;;;1.13;;
38117;SDS011;23928;47.562;7.508;2023-04-24T04:15:14;3.00;;;1.30;;
38117;SDS011;23928;47.562;7.508;2023-04-24T04:17:40;2.73;;;1.50;;
38117;SDS011;23928;47.562;7.508;2023-04-24T04:20:06;1.70;;;1.60;;
38117;SDS011;23928;47.562;7.508;2023-04-24T04:22:34;2.33;;;1.60;;
38117;SDS011;23928;47.562;7.508;2023-04-24T04:25:00;2.73;;;1.80;;
38117;SDS011;23928;47.562;7.508;2023-04-24T04:27:26;1.50;;;1.40;;
38117;SDS011;23928;47.562;7.508;2023-04-24T04:29:53;1.47;;;1.33;;
38117;SDS011;23928;47.562;7.508;2023-04-24T04:32:18;3.97;;;1.90;;
38117;SDS011;23928;47.562;7.508;2023-04-24T04:34:44;3.03;;;1.93;;
38117;SDS011;23928;47.562;7.508;2023-04-24T04:37:14;1.73;;;1.63;;
38117;SDS011;23928;47.562;7.508;2023-04-24T04:39:39;2.93;;;2.07;;
38117;SDS011;23928;47.562;7.508;2023-04-24T04:42:05;2.30;;;1.70;;
38117;SDS011;23928;47.562;7.508;2023-04-24T04:44:31;2.77;;;1.63;;
38117;SDS011;23928;47.562;7.508;2023-04-24T04:46:57;4.30;;;1.87;;
38117;SDS011;23928;47.562;7.508;2023-04-24T04:49:25;2.30;;;2.10;;
38117;SDS011;23928;47.562;7.508;2023-04-24T04:51:53;2.47;;;1.63;;
38117;SDS011;23928;47.562;7.508;2023-04-24T04:54:18;4.17;;;2.10;;
38117;SDS011;23928;47.562;7.508;2023-04-24T04:56:44;2.47;;;2.00;;
38117;SDS011;23928;47.562;7.508;2023-04-24T04:59:10;1.80;;;1.70;;
38117;SDS011;23928;47.562;7.508;2023-04-24T05:01:36;2.27;;;1.80;;
38117;SDS011;23928;47.562;7.508;2023-04-24T05:04:01;3.70;;;3.23;;
38117;SDS011;23928;47.562;7.508;2023-04-24T05:06:27;2.50;;;2.00;;
38117;SDS011;23928;47.562;7.508;2023-04-24T05:08:52;4.40;;;4.00;;
38117;SDS011;23928;47.562;7.508;2023-04-24T05:11:22;3.77;;;2.20;;
38117;SDS011;23928;47.562;7.508;2023-04-24T05:13:47;3.10;;;2.30;;
38117;SDS011;23928;47.562;7.508;2023-04-24T05:16:13;4.30;;;2.17;;
38117;SDS011;23928;47.562;7.508;2023-04-24T05:18:39;2.47;;;2.20;;
38117;SDS011;23928;47.562;7.508;2023-04-24T05:21:05;3.47;;;1.67;;
38117;SDS011;23928;47.562;7.508;2023-04-24T05:23:30;2.40;;;2.20;;
38117;SDS011;23928;47.562;7.508;2023-04-24T05:25:56;3.27;;;2.20;;
38117;SDS011;23928;47.562;7.508;2023-04-24T05:28:22;3.60;;;2.60;;
38117;SDS011;23928;47.562;7.508;2023-04-24T05:30:47;5.47;;;2.80;;
38117;SDS011;23928;47.562;7.508;2023-04-24T05:33:13;2.73;;;2.43;;
38117;SDS011;23928;47.562;7.508;2023-04-24T05:35:40;3.33;;;3.03;;
38117;SDS011;23928;47.562;7.508;2023-04-24T05:38:10;2.93;;;2.53;;
38117;SDS011;23928;47.562;7.508;2023-04-24T05:40:36;3.80;;;2.30;;
38117;SDS011;23928;47.562;7.508;2023-04-24T05:43:02;2.97;;;2.50;;
38117;SDS011;23928;47.562;7.508;2023-04-24T05:45:27;2.90;;;2.60;;
38117;SDS011;23928;47.562;7.508;2023-04-24T05:47:53;2.77;;;2.30;;
38117;SDS011;23928;47.562;7.508;2023-04-24T05:50:18;3.27;;;3.07;;
38117;SDS011;23928;47.562;7.508;2023-04-24T05:52:44;3.10;;;2.03;;
38117;SDS011;23928;47.562;7.508;2023-04-24T05:55:10;3.33;;;1.90;;
38117;SDS011;23928;47.562;7.508;2023-04-24T05:57:36;2.73;;;2.10;;
38117;SDS011;23928;47.562;7.508;2023-04-24T06:00:01;2.43;;;1.80;;
38117;SDS011;23928;47.562;7.508;2023-04-24T06:02:29;3.40;;;1.80;;
38117;SDS011;23928;47.562;7.508;2023-04-24T06:04:57;2.37;;;1.90;;
38117;SDS011;23928;47.562;7.508;2023-04-24T06:07:26;2.97;;;1.80;;
38117;SDS011;23928;47.562;7.508;2023-04-24T06:09:52;2.93;;;2.20;;
38117;SDS011;23928;47.562;7.508;2023-04-24T06:12:17;2.03;;;1.50;;
38117;SDS011;23928;47.562;7.508;2023-04-24T06:14:43;1.63;;;1.30;;
38117;SDS011;23928;47.562;7.508;2023-04-24T06:17:08;2.30;;;1.80;;
38117;SDS011;23928;47.562;7.508;2023-04-24T06:19:34;3.50;;;1.90;;
38117;SDS011;23928;47.562;7.508;2023-04-24T06:21:59;2.33;;;1.70;;
38117;SDS011;23928;47.562;7.508;2023-04-24T06:24:28;2.63;;;2.10;;
38117;SDS011;23928;47.562;7.508;2023-04-24T06:26:54;3.63;;;1.70;;
38117;SDS011;23928;47.562;7.508;2023-04-24T06:29:21;4.23;;;2.00;;
38117;SDS011;23928;47.562;7.508;2023-04-24T06:31:47;3.30;;;2.07;;
38117;SDS011;23928;47.562;7.508;2023-04-24T06:34:12;2.30;;;1.80;;
38117;SDS011;23928;47.562;7.508;2023-04-24T06:36:38;3.23;;;2.43;;
38117;SDS011;23928;47.562;7.508;2023-04-24T06:39:03;3.80;;;2.10;;
38117;SDS011;23928;47.562;7.508;2023-04-24T06:41:29;4.40;;;2.30;;
38117;SDS011;23928;47.562;7.508;2023-04-24T06:43:55;2.77;;;2.20;;
38117;SDS011;23928;47.562;7.508;2023-04-24T06:46:21;2.47;;;2.17;;
38117;SDS011;23928;47.562;7.508;2023-04-24T06:48:48;2.47;;;2.17;;
38117;SDS011;23928;47.562;7.508;2023-04-24T06:51:15;4.50;;;2.17;;
38117;SDS011;23928;47.562;7.508;2023-04-24T06:53:42;4.33;;;2.33;;
38117;SDS011;23928;47.562;7.508;2023-04-24T06:56:08;5.83;;;2.23;;
38117;SDS011;23928;47.562;7.508;2023-04-24T06:58:33;3.47;;;2.23;;
38117;SDS011;23928;47.562;7.508;2023-04-24T07:00:59;4.10;;;2.33;;
38117;SDS011;23928;47.562;7.508;2023-04-24T07:03:24;3.13;;;2.60;;
38117;SDS011;23928;47.562;7.508;2023-04-24T07:05:50;3.10;;;2.17;;
38117;SDS011;23928;47.562;7.508;2023-04-24T07:08:16;2.60;;;1.93;;
38117;SDS011;23928;47.562;7.508;2023-04-24T07:10:46;2.50;;;2.10;;
38117;SDS011;23928;47.562;7.508;2023-04-24T07:13:11;3.97;;;2.23;;
38117;SDS011;23928;47.562;7.508;2023-04-24T07:15:37;2.80;;;1.80;;
38117;SDS011;23928;47.562;7.508;2023-04-24T07:18:02;6.10;;;2.37;;
38117;SDS011;23928;47.562;7.508;2023-04-24T07:20:28;5.93;;;2.73;;
38117;SDS011;23928;47.562;7.508;2023-04-24T07:22:54;4.77;;;2.10;;
38117;SDS011;23928;47.562;7.508;2023-04-24T07:25:19;3.37;;;2.13;;
38117;SDS011;23928;47.562;7.508;2023-04-24T07:27:45;3.00;;;2.13;;
38117;SDS011;23928;47.562;7.508;2023-04-24T07:30:11;7.50;;;2.57;;
38117;SDS011;23928;47.562;7.508;2023-04-24T07:32:36;3.50;;;2.13;;
38117;SDS011;23928;47.562;7.508;2023-04-24T07:35:02;4.87;;;2.40;;
38117;SDS011;23928;47.562;7.508;2023-04-24T07:37:28;6.17;;;2.17;;
38117;SDS011;23928;47.562;7.508;2023-04-24T07:39:54;4.13;;;2.10;;
38117;SDS011;23928;47.562;7.508;2023-04-24T07:42:20;5.17;;;2.50;;
38117;SDS011;23928;47.562;7.508;2023-04-24T07:44:45;5.60;;;2.20;;
38117;SDS011;23928;47.562;7.508;2023-04-24T07:47:12;3.60;;;2.60;;
38117;SDS011;23928;47.562;7.508;2023-04-24T07:49:41;3.83;;;2.30;;
38117;SDS011;23928;47.562;7.508;2023-04-24T07:52:07;3.77;;;2.30;;
38117;SDS011;23928;47.562;7.508;2023-04-24T07:54:32;4.73;;;2.20;;
38117;SDS011;23928;47.562;7.508;2023-04-24T07:56:58;2.77;;;1.73;;
38117;SDS011;23928;47.562;7.508;2023-04-24T07:59:25;3.63;;;1.77;;
38117;SDS011;23928;47.562;7.508;2023-04-24T08:01:50;5.10;;;2.07;;
38117;SDS011;23928;47.562;7.508;2023-04-24T08:04:16;5.30;;;1.83;;
38117;SDS011;23928;47.562;7.508;2023-04-24T08:06:42;4.83;;;2.50;;
38117;SDS011;23928;47.562;7.508;2023-04-24T08:09:08;1.70;;;1.53;;
38117;SDS011;23928;47.562;7.508;2023-04-24T08:11:34;4.60;;;1.97;;
38117;SDS011;23928;47.562;7.508;2023-04-24T08:14:00;2.63;;;1.77;;
38117;SDS011;23928;47.562;7.508;2023-04-24T08:16:26;2.13;;;1.90;;
38117;SDS011;23928;47.562;7.508;2023-04-24T08:18:52;3.93;;;1.80;;
38117;SDS011;23928;47.562;7.508;2023-04-24T08:21:18;2.60;;;1.70;;
38117;SDS011;23928;47.562;7.508;2023-04-24T08:23:45;3.73;;;2.43;;
38117;SDS011;23928;47.562;7.508;2023-04-24T08:26:11;4.80;;;2.07;;
38117;SDS011;23928;47.562;7.508;2023-04-24T08:28:37;3.10;;;1.80;;
38117;SDS011;23928;47.562;7.508;2023-04-24T08:31:03;3.80;;;1.67;;
38117;SDS011;23928;47.562;7.508;2023-04-24T08:33:29;2.73;;;1.77;;
38117;SDS011;23928;47.562;7.508;2023-04-24T08:35:59;2.90;;;1.80;;
38117;SDS011;23928;47.562;7.508;2023-04-24T08:38:26;2.83;;;2.00;;
38117;SDS011;23928;47.562;7.508;2023-04-24T08:40:52;3.17;;;1.70;;
38117;SDS011;23928;47.562;7.508;2023-04-24T08:43:18;5.13;;;1.90;;
38117;SDS011;23928;47.562;7.508;2023-04-24T08:45:46;3.90;;;1.90;;
38117;SDS011;23928;47.562;7.508;2023-04-24T08:48:12;4.43;;;2.13;;
38117;SDS011;23928;47.562;7.508;2023-04-24T08:50:38;3.57;;;1.77;;
38117;SDS011;23928;47.562;7.508;2023-04-24T08:53:07;3.43;;;2.13;;
38117;SDS011;23928;47.562;7.508;2023-04-24T08:55:33;4.63;;;2.20;;
38117;SDS011;23928;47.562;7.508;2023-04-24T08:57:59;3.20;;;2.30;;
38117;SDS011;23928;47.562;7.508;2023-04-24T09:00:25;5.30;;;2.40;;
38117;SDS011;23928;47.562;7.508;2023-04-24T09:02:53;4.97;;;2.03;;
38117;SDS011;23928;47.562;7.508;2023-04-24T09:05:19;2.17;;;1.83;;
38117;SDS011;23928;47.562;7.508;2023-04-24T09:07:49;4.20;;;1.97;;
38117;SDS011;23928;47.562;7.508;2023-04-24T09:10:18;4.53;;;2.30;;
38117;SDS011;23928;47.562;7.508;2023-04-24T09:12:44;4.80;;;2.10;;
38117;SDS011;23928;47.562;7.508;2023-04-24T09:15:10;2.43;;;1.93;;
38117;SDS011;23928;47.562;7.508;2023-04-24T09:17:36;2.47;;;2.27;;
38117;SDS011;23928;47.562;7.508;2023-04-24T09:20:02;3.53;;;2.20;;
38117;SDS011;23928;47.562;7.508;2023-04-24T09:22:29;2.60;;;1.97;;
38117;SDS011;23928;47.562;7.508;2023-04-24T09:25:02;2.93;;;2.10;;
38117;SDS011;23928;47.562;7.508;2023-04-24T09:27:30;2.50;;;1.77;;
38117;SDS011;23928;47.562;7.508;2023-04-24T09:29:57;2.17;;;1.63;;
38117;SDS011;23928;47.562;7.508;2023-04-24T09:32:23;2.23;;;2.00;;
38117;SDS011;23928;47.562;7.508;2023-04-24T09:35:09;3.03;;;2.00;;
38117;SDS011;23928;47.562;7.508;2023-04-24T09:37:43;2.53;;;1.77;;
38117;SDS011;23928;47.562;7.508;2023-04-24T09:40:17;2.40;;;1.47;;
38117;SDS011;23928;47.562;7.508;2023-04-24T09:43:05;2.77;;;2.00;;
38117;SDS011;23928;47.562;7.508;2023-04-24T09:45:36;3.10;;;1.87;;
38117;SDS011;23928;47.562;7.508;2023-04-24T09:48:03;1.87;;;1.53;;
38117;SDS011;23928;47.562;7.508;2023-04-24T09:50:31;2.43;;;2.13;;
38117;SDS011;23928;47.562;7.508;2023-04-24T09:52:57;3.57;;;2.10;;
38117;SDS011;23928;47.562;7.508;2023-04-24T09:55:26;4.20;;;2.30;;
38117;SDS011;23928;47.562;7.508;2023-04-24T09:57:54;3.77;;;1.93;;
38117;SDS011;23928;47.562;7.508;2023-04-24T10:02:51;2.70;;;2.07;;
38117;SDS011;23928;47.562;7.508;2023-04-24T10:05:23;2.07;;;1.80;;
38117;SDS011;23928;47.562;7.508;2023-04-24T10:07:55;3.77;;;2.20;;
38117;SDS011;23928;47.562;7.508;2023-04-24T10:10:22;3.67;;;2.30;;
38117;SDS011;23928;47.562;7.508;2023-04-24T10:12:48;2.83;;;1.87;;
38117;SDS011;23928;47.562;7.508;2023-04-24T10:15:15;2.37;;;2.13;;
38117;SDS011;23928;47.562;7.508;2023-04-24T10:17:45;3.97;;;2.40;;
38117;SDS011;23928;47.562;7.508;2023-04-24T10:20:24;6.83;;;2.30;;
38117;SDS011;23928;47.562;7.508;2023-04-24T10:22:52;2.67;;;1.90;;
38117;SDS011;23928;47.562;7.508;2023-04-24T10:25:19;2.33;;;1.77;;
38117;SDS011;23928;47.562;7.508;2023-04-24T10:27:46;4.00;;;2.00;;
38117;SDS011;23928;47.562;7.508;2023-04-24T10:30:13;3.67;;;2.40;;
38117;SDS011;23928;47.562;7.508;2023-04-24T10:32:39;2.60;;;1.70;;
38117;SDS011;23928;47.562;7.508;2023-04-24T10:35:09;5.60;;;2.03;;
38117;SDS011;23928;47.562;7.508;2023-04-24T10:37:46;2.63;;;2.00;;
38117;SDS011;23928;47.562;7.508;2023-04-24T10:40:18;4.93;;;2.10;;
38117;SDS011;23928;47.562;7.508;2023-04-24T10:42:51;4.50;;;2.10;;
38117;SDS011;23928;47.562;7.508;2023-04-24T10:45:19;4.00;;;1.90;;
38117;SDS011;23928;47.562;7.508;2023-04-24T10:48:01;3.73;;;1.87;;
38117;SDS011;23928;47.562;7.508;2023-04-24T10:50:29;3.80;;;2.50;;
38117;SDS011;23928;47.562;7.508;2023-04-24T10:53:07;3.80;;;2.00;;
38117;SDS011;23928;47.562;7.508;2023-04-24T10:55:45;2.70;;;2.20;;
38117;SDS011;23928;47.562;7.508;2023-04-24T10:58:15;2.73;;;1.80;;
38117;SDS011;23928;47.562;7.508;2023-04-24T11:00:42;2.90;;;2.00;;
38117;SDS011;23928;47.562;7.508;2023-04-24T11:03:22;3.40;;;2.00;;
38117;SDS011;23928;47.562;7.508;2023-04-24T11:08:29;3.80;;;1.93;;
38117;SDS011;23928;47.562;7.508;2023-04-24T11:10:57;3.40;;;2.20;;
38117;SDS011;23928;47.562;7.508;2023-04-24T11:13:25;2.53;;;1.90;;
38117;SDS011;23928;47.562;7.508;2023-04-24T11:18:45;3.63;;;2.60;;
38117;SDS011;23928;47.562;7.508;2023-04-24T11:21:16;5.03;;;2.10;;
38117;SDS011;23928;47.562;7.508;2023-04-24T11:23:42;4.27;;;2.43;;
38117;SDS011;23928;47.562;7.508;2023-04-24T11:26:09;2.67;;;1.90;;
38117;SDS011;23928;47.562;7.508;2023-04-24T11:28:35;2.03;;;1.83;;
38117;SDS011;23928;47.562;7.508;2023-04-24T11:31:33;4.27;;;1.90;;
38117;SDS011;23928;47.562;7.508;2023-04-24T11:34:13;3.37;;;2.10;;
38117;SDS011;23928;47.562;7.508;2023-04-24T11:36:39;3.43;;;2.00;;
38117;SDS011;23928;47.562;7.508;2023-04-24T11:39:08;2.23;;;1.90;;
38117;SDS011;23928;47.562;7.508;2023-04-24T11:41:33;3.80;;;2.00;;
38117;SDS011;23928;47.562;7.508;2023-04-24T11:44:00;8.57;;;2.40;;
38117;SDS011;23928;47.562;7.508;2023-04-24T11:46:28;3.80;;;2.27;;
38117;SDS011;23928;47.562;7.508;2023-04-24T11:48:55;4.33;;;2.10;;
38117;SDS011;23928;47.562;7.508;2023-04-24T11:51:22;2.30;;;2.00;;
38117;SDS011;23928;47.562;7.508;2023-04-24T11:53:50;2.63;;;2.13;;
38117;SDS011;23928;47.562;7.508;2023-04-24T11:56:19;3.33;;;2.23;;
38117;SDS011;23928;47.562;7.508;2023-04-24T11:58:47;4.80;;;2.13;;
38117;SDS011;23928;47.562;7.508;2023-04-24T12:01:13;4.33;;;1.97;;
38117;SDS011;23928;47.562;7.508;2023-04-24T12:03:39;3.10;;;1.80;;
38117;SDS011;23928;47.562;7.508;2023-04-24T12:06:08;3.23;;;1.70;;
38117;SDS011;23928;47.562;7.508;2023-04-24T12:08:35;2.10;;;1.77;;
38117;SDS011;23928;47.562;7.508;2023-04-24T12:11:04;2.67;;;1.80;;
38117;SDS011;23928;47.562;7.508;2023-04-24T12:13:34;3.27;;;1.67;;
38117;SDS011;23928;47.562;7.508;2023-04-24T12:16:03;3.03;;;2.10;;
38117;SDS011;23928;47.562;7.508;2023-04-24T12:18:30;4.50;;;1.80;;
38117;SDS011;23928;47.562;7.508;2023-04-24T12:21:14;2.63;;;1.90;;
38117;SDS011;23928;47.562;7.508;2023-04-24T12:23:53;2.97;;;2.00;;
38117;SDS011;23928;47.562;7.508;2023-04-24T12:26:19;1.93;;;1.50;;
38117;SDS011;23928;47.562;7.508;2023-04-24T12:28:47;1.77;;;1.60;;
38117;SDS011;23928;47.562;7.508;2023-04-24T12:31:16;2.00;;;1.80;;
38117;SDS011;23928;47.562;7.508;2023-04-24T12:33:42;3.83;;;2.03;;
38117;SDS011;23928;47.562;7.508;2023-04-24T12:36:11;3.13;;;1.60;;
38117;SDS011;23928;47.562;7.508;2023-04-24T12:38:37;4.23;;;2.00;;
38117;SDS011;23928;47.562;7.508;2023-04-24T12:41:11;3.50;;;1.97;;
38117;SDS011;23928;47.562;7.508;2023-04-24T12:43:38;3.07;;;2.30;;
38117;SDS011;23928;47.562;7.508;2023-04-24T12:46:16;2.27;;;1.90;;
38117;SDS011;23928;47.562;7.508;2023-04-24T12:48:41;2.17;;;1.90;;
38117;SDS011;23928;47.562;7.508;2023-04-24T12:51:07;2.50;;;1.90;;
38117;SDS011;23928;47.562;7.508;2023-04-24T12:53:33;4.77;;;1.90;;
38117;SDS011;23928;47.562;7.508;2023-04-24T12:55:58;3.33;;;1.97;;
38117;SDS011;23928;47.562;7.508;2023-04-24T12:58:24;5.00;;;2.33;;
38117;SDS011;23928;47.562;7.508;2023-04-24T13:00:49;2.80;;;1.83;;
38117;SDS011;23928;47.562;7.508;2023-04-24T13:03:15;5.23;;;2.03;;
38117;SDS011;23928;47.562;7.508;2023-04-24T13:05:42;2.43;;;1.83;;
38117;SDS011;23928;47.562;7.508;2023-04-24T13:08:08;2.50;;;1.90;;
38117;SDS011;23928;47.562;7.508;2023-04-24T13:10:34;3.73;;;2.00;;
38117;SDS011;23928;47.562;7.508;2023-04-24T13:12:59;3.50;;;1.83;;
38117;SDS011;23928;47.562;7.508;2023-04-24T13:15:25;2.07;;;1.63;;
38117;SDS011;23928;47.562;7.508;2023-04-24T13:17:51;4.07;;;2.40;;
38117;SDS011;23928;47.562;7.508;2023-04-24T13:20:17;4.93;;;3.17;;
38117;SDS011;23928;47.562;7.508;2023-04-24T13:22:43;3.30;;;2.20;;
38117;SDS011;23928;47.562;7.508;2023-04-24T13:25:08;2.00;;;1.73;;
38117;SDS011;23928;47.562;7.508;2023-04-24T13:27:35;3.17;;;1.80;;
38117;SDS011;23928;47.562;7.508;2023-04-24T13:30:00;2.97;;;1.97;;
38117;SDS011;23928;47.562;7.508;2023-04-24T13:32:26;3.80;;;1.93;;
38117;SDS011;23928;47.562;7.508;2023-04-24T13:34:53;4.10;;;2.10;;
38117;SDS011;23928;47.562;7.508;2023-04-24T13:37:18;2.63;;;1.60;;
38117;SDS011;23928;47.562;7.508;2023-04-24T13:39:44;3.67;;;1.93;;
38117;SDS011;23928;47.562;7.508;2023-04-24T13:42:09;2.00;;;1.80;;
38117;SDS011;23928;47.562;7.508;2023-04-24T13:44:35;2.90;;;1.80;;
38117;SDS011;23928;47.562;7.508;2023-04-24T13:47:01;1.80;;;1.60;;
38117;SDS011;23928;47.562;7.508;2023-04-24T13:49:27;2.13;;;1.90;;
38117;SDS011;23928;47.562;7.508;2023-04-24T13:51:53;2.97;;;1.93;;
38117;SDS011;23928;47.562;7.508;2023-04-24T13:54:20;4.83;;;2.27;;
38117;SDS011;23928;47.562;7.508;2023-04-24T13:56:48;3.20;;;2.10;;
38117;SDS011;23928;47.562;7.508;2023-04-24T13:59:14;3.47;;;2.37;;
38117;SDS011;23928;47.562;7.508;2023-04-24T14:01:39;2.33;;;2.00;;
38117;SDS011;23928;47.562;7.508;2023-04-24T14:04:05;1.97;;;1.80;;
38117;SDS011;23928;47.562;7.508;2023-04-24T14:06:31;4.03;;;1.83;;
38117;SDS011;23928;47.562;7.508;2023-04-24T14:08:57;2.87;;;2.10;;
38117;SDS011;23928;47.562;7.508;2023-04-24T14:11:22;3.73;;;1.90;;
38117;SDS011;23928;47.562;7.508;2023-04-24T14:13:48;2.67;;;2.00;;
38117;SDS011;23928;47.562;7.508;2023-04-24T14:16:14;2.77;;;1.97;;
38117;SDS011;23928;47.562;7.508;2023-04-24T14:18:40;3.13;;;1.67;;
38117;SDS011;23928;47.562;7.508;2023-04-24T14:21:05;2.70;;;1.90;;
38117;SDS011;23928;47.562;7.508;2023-04-24T14:23:31;4.03;;;2.10;;
38117;SDS011;23928;47.562;7.508;2023-04-24T14:25:57;2.37;;;2.10;;
38117;SDS011;23928;47.562;7.508;2023-04-24T14:28:23;3.50;;;2.10;;
38117;SDS011;23928;47.562;7.508;2023-04-24T14:30:50;4.07;;;2.07;;
38117;SDS011;23928;47.562;7.508;2023-04-24T14:33:15;3.60;;;2.07;;
38117;SDS011;23928;47.562;7.508;2023-04-24T14:35:42;2.57;;;2.00;;
38117;SDS011;23928;47.562;7.508;2023-04-24T14:38:08;3.23;;;1.87;;
38117;SDS011;23928;47.562;7.508;2023-04-24T14:40:34;4.30;;;2.10;;
38117;SDS011;23928;47.562;7.508;2023-04-24T14:43:00;4.10;;;2.17;;
38117;SDS011;23928;47.562;7.508;2023-04-24T14:45:26;2.00;;;1.80;;
38117;SDS011;23928;47.562;7.508;2023-04-24T14:47:52;3.07;;;2.30;;
38117;SDS011;23928;47.562;7.508;2023-04-24T14:50:18;3.90;;;2.67;;
38117;SDS011;23928;47.562;7.508;2023-04-24T14:52:44;4.03;;;2.60;;
38117;SDS011;23928;47.562;7.508;2023-04-24T14:55:10;2.70;;;2.07;;